Climatologie pour Saint-Brevin les Pins
Jour • Résumé pour juin 6, 2017 Système :  Métrique    Anglais   Mixte
« - 1 jour
+ 1 jour »
Jour Semaine Mois Année Personnalisé
  Maximum : Minimum : Moyenne :
Température sous abri : 17.8 °C 11.8 °C 14.6 °C
Point de rosée : 15.1 °C 9.2 °C 10.8 °C
Humidité : 96 % 64 % 79 %
Vitesse du vent : 38.6 km/h 3.2 km/h 16.6 km/h
Rafale : 51.5 km/h - -
Direction :- - WNW
Pression : 1017.5 hPa 1000.9 hPa -
Précipitations : 2.3 mm    
Historical Graphs
 
 
Tableau de données pour juin 6, 2017
Heure Tempé Pt rosée Pression Vent Vitesse Rafale Humidité Taux pluie (/hr) Soleil
00:00 15.5 °C 14.9 °C 1001.9 hPa WNW 12.9 km/h 32.2 km/h 96 % 0.3 mm 0 W/m2
00:10 15.7 °C 14.9 °C 1001.6 hPa WSW 30.6 km/h 33.8 km/h 95 % 0.3 mm 0 W/m2
00:15 15.7 °C 14.9 °C 1001.6 hPa WSW 9.7 km/h 30.6 km/h 95 % 0.3 mm 0 W/m2
00:20 15.7 °C 14.9 °C 1001.6 hPa SW 32.2 km/h 35.4 km/h 95 % 0.3 mm 0 W/m2
00:25 15.7 °C 15.1 °C 1001.6 hPa WSW 24.1 km/h 37.0 km/h 96 % 0.3 mm 0 W/m2
00:30 15.8 °C 15.0 °C 1001.6 hPa West 16.1 km/h 45.1 km/h 95 % 0.3 mm 0 W/m2
00:35 15.8 °C 15.0 °C 1001.2 hPa West 20.9 km/h 45.1 km/h 95 % 0.3 mm 0 W/m2
00:40 15.8 °C 15.0 °C 1001.2 hPa West 16.1 km/h 40.2 km/h 95 % 0.3 mm 0 W/m2
00:45 15.8 °C 15.0 °C 1001.2 hPa WSW 11.3 km/h 41.8 km/h 95 % 0.3 mm 0 W/m2
00:50 15.8 °C 15.0 °C 1001.2 hPa WSW 25.7 km/h 41.8 km/h 95 % 0.3 mm 0 W/m2
00:55 15.8 °C 14.9 °C 1001.2 hPa WNW 27.4 km/h 41.8 km/h 94 % 0.3 mm 0 W/m2
01:00 15.9 °C 14.9 °C 1001.2 hPa WNW 8.0 km/h 38.6 km/h 94 % 0.3 mm 0 W/m2
01:05 15.9 °C 14.9 °C 1000.9 hPa West 14.5 km/h 49.9 km/h 94 % 0.3 mm 0 W/m2
01:10 15.7 °C 14.5 °C 1001.6 hPa WNW 12.9 km/h 49.9 km/h 93 % 0.5 mm 0 W/m2
01:15 14.4 °C 13.2 °C 1001.6 hPa WNW 12.9 km/h 37.0 km/h 92 % 0.5 mm 0 W/m2
01:20 13.9 °C 12.8 °C 1001.6 hPa NW 12.9 km/h 37.0 km/h 93 % 0.5 mm 0 W/m2
01:25 13.8 °C 12.8 °C 1001.6 hPa WNW 32.2 km/h 37.0 km/h 94 % 0.3 mm 0 W/m2
01:30 13.7 °C 12.7 °C 1001.9 hPa NW 12.9 km/h 37.0 km/h 94 % 0.3 mm 0 W/m2
01:35 13.5 °C 12.7 °C 1001.9 hPa NW 24.1 km/h 38.6 km/h 95 % 0.3 mm 0 W/m2
01:40 13.4 °C 12.4 °C 1001.9 hPa West 16.1 km/h 38.6 km/h 94 % 0.5 mm 0 W/m2
01:45 13.3 °C 12.5 °C 1002.3 hPa WNW 19.3 km/h 35.4 km/h 95 % 0.5 mm 0 W/m2
01:50 13.4 °C 12.7 °C 1002.6 hPa West 14.5 km/h 30.6 km/h 95 % 0.5 mm 0 W/m2
01:55 13.4 °C 12.7 °C 1002.6 hPa WNW 14.5 km/h 33.8 km/h 95 % 0.5 mm 0 W/m2
02:00 13.3 °C 12.4 °C 1002.6 hPa WNW 9.7 km/h 37.0 km/h 94 % 0.5 mm 0 W/m2
02:05 13.1 °C 12.1 °C 1002.9 hPa NW 20.9 km/h 37.0 km/h 94 % 0.5 mm 0 W/m2
02:10 12.8 °C 11.7 °C 1002.9 hPa NW 19.3 km/h 29.0 km/h 93 % 0.3 mm 0 W/m2
02:15 12.8 °C 11.7 °C 1002.9 hPa WNW 8.0 km/h 29.0 km/h 93 % 0.3 mm 0 W/m2
02:20 12.7 °C 11.6 °C 1003.3 hPa WNW 14.5 km/h 32.2 km/h 93 % 0.3 mm 0 W/m2
02:25 12.7 °C 11.6 °C 1003.6 hPa WSW 16.1 km/h 32.2 km/h 93 % 0.3 mm 0 W/m2
02:30 12.6 °C 11.3 °C 1003.6 hPa WNW 12.9 km/h 51.5 km/h 92 % 0.3 mm 0 W/m2
02:35 12.4 °C 11.1 °C 1003.9 hPa NW 16.1 km/h 51.5 km/h 92 % 0.3 mm 0 W/m2
02:40 12.2 °C 10.9 °C 1003.9 hPa NNW 11.3 km/h 32.2 km/h 92 % 0.0 mm 0 W/m2
02:45 12.1 °C 10.9 °C 1003.9 hPa WNW 16.1 km/h 25.7 km/h 92 % 0.0 mm 0 W/m2
02:50 12.1 °C 10.7 °C 1003.9 hPa West 20.9 km/h 33.8 km/h 91 % 0.0 mm 0 W/m2
02:55 12.1 °C 10.6 °C 1004.3 hPa NW 11.3 km/h 35.4 km/h 91 % 0.0 mm 0 W/m2
03:00 11.9 °C 10.5 °C 1004.3 hPa NW 4.8 km/h 35.4 km/h 91 % 0.0 mm 0 W/m2
03:05 11.9 °C 10.4 °C 1004.3 hPa WNW 9.7 km/h 30.6 km/h 90 % 0.0 mm 0 W/m2
03:10 11.8 °C 10.2 °C 1004.6 hPa WNW 11.3 km/h 32.2 km/h 90 % 0.0 mm 0 W/m2
03:15 11.8 °C 10.4 °C 1004.6 hPa NW 6.4 km/h 32.2 km/h 91 % 0.0 mm 0 W/m2
03:20 11.8 °C 10.4 °C 1004.6 hPa West 16.1 km/h 20.9 km/h 91 % 0.0 mm 0 W/m2
03:25 11.8 °C 10.4 °C 1004.6 hPa West 4.8 km/h 24.1 km/h 91 % 0.0 mm 0 W/m2
03:30 11.8 °C 10.2 °C 1004.6 hPa WNW 9.7 km/h 32.2 km/h 90 % 0.0 mm 0 W/m2
03:35 11.9 °C 10.2 °C 1005.0 hPa WNW 8.0 km/h 32.2 km/h 89 % 0.0 mm 0 W/m2
03:40 11.9 °C 10.0 °C 1004.6 hPa WSW 11.3 km/h 32.2 km/h 88 % 0.0 mm 0 W/m2
03:45 11.9 °C 9.8 °C 1005.0 hPa WNW 20.9 km/h 30.6 km/h 87 % 0.0 mm 0 W/m2
03:50 12.0 °C 9.9 °C 1005.0 hPa NW 12.9 km/h 29.0 km/h 87 % 0.0 mm 0 W/m2
03:55 12.1 °C 10.0 °C 1005.0 hPa West 8.0 km/h 25.7 km/h 87 % 0.0 mm 0 W/m2
04:00 12.2 °C 10.1 °C 1005.0 hPa NW 11.3 km/h 25.7 km/h 87 % 0.0 mm 0 W/m2
04:05 12.3 °C 10.1 °C 1005.3 hPa WNW 11.3 km/h 25.7 km/h 86 % 0.0 mm 0 W/m2
04:10 12.6 °C 9.9 °C 1005.3 hPa NW 11.3 km/h 46.7 km/h 84 % 0.0 mm 0 W/m2
04:15 12.6 °C 9.9 °C 1005.3 hPa WNW 8.0 km/h 46.7 km/h 84 % 0.0 mm 0 W/m2
04:20 12.4 °C 10.0 °C 1005.3 hPa NW 16.1 km/h 27.4 km/h 85 % 0.0 mm 0 W/m2
04:25 12.6 °C 10.0 °C 1005.6 hPa NW 9.7 km/h 27.4 km/h 84 % 0.0 mm 0 W/m2
04:30 12.7 °C 9.9 °C 1005.3 hPa NNW 17.7 km/h 25.7 km/h 83 % 0.0 mm 0 W/m2
04:35 12.7 °C 9.9 °C 1005.6 hPa WNW 9.7 km/h 29.0 km/h 83 % 0.0 mm 0 W/m2
04:40 12.7 °C 9.9 °C 1005.6 hPa NW 11.3 km/h 33.8 km/h 83 % 0.0 mm 0 W/m2
04:45 12.9 °C 10.1 °C 1005.6 hPa West 9.7 km/h 33.8 km/h 83 % 0.0 mm 0 W/m2
04:50 13.1 °C 10.1 °C 1005.6 hPa West 6.4 km/h 29.0 km/h 82 % 0.0 mm 0 W/m2
04:55 13.0 °C 10.4 °C 1005.6 hPa NW 20.9 km/h 29.0 km/h 84 % 0.0 mm 0 W/m2
05:00 13.1 °C 10.3 °C 1005.6 hPa NW 16.1 km/h 29.0 km/h 83 % 0.0 mm 0 W/m2
05:05 13.2 °C 10.3 °C 1006.0 hPa NW 17.7 km/h 43.4 km/h 83 % 0.0 mm 0 W/m2
05:10 13.2 °C 10.2 °C 1006.0 hPa West 27.4 km/h 43.4 km/h 82 % 0.0 mm 0 W/m2
05:15 13.2 °C 10.2 °C 1006.0 hPa West 14.5 km/h 32.2 km/h 82 % 0.0 mm 0 W/m2
05:20 13.1 °C 9.9 °C 1006.0 hPa WNW 6.4 km/h 32.2 km/h 81 % 0.0 mm 0 W/m2
05:25 12.9 °C 9.7 °C 1006.3 hPa WNW 12.9 km/h 32.2 km/h 81 % 0.0 mm 0 W/m2
05:30 12.8 °C 9.7 °C 1006.3 hPa WNW 6.4 km/h 30.6 km/h 81 % 0.0 mm 0 W/m2
05:35 12.7 °C 9.5 °C 1006.3 hPa WNW 14.5 km/h 30.6 km/h 81 % 0.0 mm 0 W/m2
05:40 12.7 °C 9.3 °C 1006.3 hPa WNW 9.7 km/h 33.8 km/h 80 % 0.0 mm 0 W/m2
05:45 12.8 °C 9.2 °C 1006.3 hPa WNW 12.9 km/h 33.8 km/h 79 % 0.0 mm 0 W/m2
05:50 12.9 °C 9.4 °C 1006.3 hPa WNW 22.5 km/h 32.2 km/h 79 % 0.0 mm 0 W/m2
05:55 13.0 °C 9.6 °C 1006.3 hPa West 22.5 km/h 32.2 km/h 80 % 0.0 mm 0 W/m2
06:00 13.0 °C 9.6 °C 1006.7 hPa WNW 20.9 km/h 32.2 km/h 80 % 0.0 mm 0 W/m2
06:05 13.1 °C 9.5 °C 1006.7 hPa NW 9.7 km/h 32.2 km/h 79 % 0.0 mm 0 W/m2
06:10 13.2 °C 9.6 °C 1006.7 hPa NNW 14.5 km/h 33.8 km/h 79 % 0.0 mm 0 W/m2
06:15 13.3 °C 9.7 °C 1007.0 hPa NNW 20.9 km/h 35.4 km/h 79 % 0.0 mm 0 W/m2
06:20 13.4 °C 9.8 °C 1007.0 hPa WNW 30.6 km/h 35.4 km/h 79 % 0.0 mm 0 W/m2
06:25 13.4 °C 10.0 °C 1007.0 hPa WNW 12.9 km/h 37.0 km/h 80 % 0.0 mm 5 W/m2
06:35 13.4 °C 9.9 °C 1007.3 hPa WNW 27.4 km/h 33.8 km/h 79 % 0.0 mm 0 W/m2
06:40 13.2 °C 9.8 °C 1007.3 hPa North 14.5 km/h 41.8 km/h 80 % 0.0 mm 0 W/m2
06:45 12.7 °C 9.5 °C 1007.3 hPa NNW 8.0 km/h 41.8 km/h 81 % 0.0 mm 7 W/m2
06:50 12.4 °C 9.3 °C 1007.3 hPa WNW 6.4 km/h 30.6 km/h 81 % 0.0 mm 14 W/m2
06:55 12.6 °C 9.6 °C 1007.7 hPa West 3.2 km/h 33.8 km/h 82 % 0.0 mm 26 W/m2
07:00 12.7 °C 9.7 °C 1007.7 hPa NW 9.7 km/h 33.8 km/h 82 % 0.0 mm 32 W/m2
07:05 12.8 °C 10.0 °C 1007.7 hPa NW 16.1 km/h 32.2 km/h 83 % 0.0 mm 81 W/m2
07:10 13.1 °C 10.1 °C 1007.7 hPa WNW 14.5 km/h 32.2 km/h 82 % 0.0 mm 58 W/m2
07:15 13.3 °C 10.1 °C 1007.7 hPa West 11.3 km/h 33.8 km/h 81 % 0.0 mm 32 W/m2
07:20 13.2 °C 10.0 °C 1007.7 hPa NNW 11.3 km/h 33.8 km/h 81 % 0.0 mm 35 W/m2
07:25 13.2 °C 9.8 °C 1007.7 hPa West 3.2 km/h 33.8 km/h 80 % 0.0 mm 39 W/m2
07:30 13.3 °C 9.9 °C 1008.0 hPa NW 22.5 km/h 30.6 km/h 80 % 0.0 mm 42 W/m2
07:40 13.4 °C 9.9 °C 1008.0 hPa NNW 20.9 km/h 30.6 km/h 79 % 0.0 mm 53 W/m2
07:45 13.6 °C 9.6 °C 1008.0 hPa WSW 22.5 km/h 33.8 km/h 77 % 0.0 mm 111 W/m2
07:55 13.8 °C 9.9 °C 1008.4 hPa West 4.8 km/h 27.4 km/h 77 % 0.0 mm 33 W/m2
08:00 13.6 °C 10.0 °C 1008.4 hPa NW 29.0 km/h 33.8 km/h 79 % 0.0 mm 51 W/m2
08:05 13.2 °C 9.7 °C 1008.7 hPa West 14.5 km/h 33.8 km/h 79 % 0.0 mm 53 W/m2
08:10 13.2 °C 9.8 °C 1008.7 hPa West 12.9 km/h 24.1 km/h 80 % 0.0 mm 316 W/m2
08:15 13.8 °C 10.4 °C 1008.7 hPa WNW 4.8 km/h 30.6 km/h 80 % 0.0 mm 246 W/m2
08:20 13.7 °C 10.5 °C 1009.0 hPa NW 16.1 km/h 33.8 km/h 81 % 0.3 mm 26 W/m2
08:25 12.8 °C 10.5 °C 1009.0 hPa NW 20.9 km/h 33.8 km/h 86 % 0.3 mm 86 W/m2
08:30 12.4 °C 10.3 °C 1009.0 hPa NW 9.7 km/h 32.2 km/h 87 % 0.5 mm 130 W/m2
08:35 12.4 °C 10.5 °C 1009.4 hPa WNW 6.4 km/h 29.0 km/h 88 % 0.5 mm 123 W/m2
08:40 12.6 °C 10.7 °C 1009.4 hPa West 11.3 km/h 29.0 km/h 88 % 0.5 mm 141 W/m2
08:45 12.8 °C 10.8 °C 1009.4 hPa WSW 6.4 km/h 24.1 km/h 88 % 0.5 mm 345 W/m2
08:50 13.3 °C 11.2 °C 1009.4 hPa WNW 9.7 km/h 25.7 km/h 87 % 0.5 mm 353 W/m2
08:55 13.8 °C 10.9 °C 1009.7 hPa West 25.7 km/h 29.0 km/h 83 % 0.5 mm 362 W/m2
09:00 14.0 °C 10.8 °C 1009.7 hPa West 8.0 km/h 30.6 km/h 81 % 0.5 mm 397 W/m2
09:05 14.3 °C 10.7 °C 1009.7 hPa NW 17.7 km/h 32.2 km/h 79 % 0.5 mm 431 W/m2
09:10 14.4 °C 9.8 °C 1010.0 hPa WNW 16.1 km/h 32.2 km/h 74 % 0.5 mm 459 W/m2
09:15 14.5 °C 10.3 °C 1010.0 hPa NW 16.1 km/h 35.4 km/h 76 % 0.5 mm 531 W/m2
09:20 14.3 °C 9.9 °C 1010.0 hPa West 16.1 km/h 35.4 km/h 75 % 0.3 mm 72 W/m2
09:25 14.5 °C 10.3 °C 1010.0 hPa NW 19.3 km/h 33.8 km/h 76 % 0.0 mm 468 W/m2
09:30 14.9 °C 10.3 °C 1010.4 hPa WNW 11.3 km/h 33.8 km/h 74 % 0.0 mm 529 W/m2
09:35 15.1 °C 10.0 °C 1010.4 hPa WNW 14.5 km/h 35.4 km/h 72 % 0.0 mm 545 W/m2
09:40 15.1 °C 9.8 °C 1010.4 hPa WNW 12.9 km/h 40.2 km/h 71 % 0.0 mm 573 W/m2
09:45 14.9 °C 10.1 °C 1010.4 hPa West 20.9 km/h 40.2 km/h 73 % 0.0 mm 555 W/m2
09:50 15.2 °C 10.2 °C 1010.7 hPa WNW 12.9 km/h 38.6 km/h 72 % 0.0 mm 613 W/m2
09:55 15.6 °C 10.3 °C 1010.7 hPa NW 8.0 km/h 38.6 km/h 71 % 0.0 mm 227 W/m2
10:00 15.0 °C 10.4 °C 1010.7 hPa West 24.1 km/h 38.6 km/h 74 % 0.0 mm 46 W/m2
10:05 13.4 °C 10.1 °C 1011.1 hPa NW 12.9 km/h 45.1 km/h 80 % 0.3 mm 109 W/m2
10:10 12.7 °C 10.4 °C 1011.1 hPa West 9.7 km/h 45.1 km/h 86 % 0.3 mm 163 W/m2
10:15 12.6 °C 10.6 °C 1011.1 hPa WNW 17.7 km/h 33.8 km/h 88 % 0.3 mm 206 W/m2
10:20 12.8 °C 10.9 °C 1011.1 hPa West 6.4 km/h 32.2 km/h 88 % 0.3 mm 295 W/m2
10:25 13.7 °C 11.5 °C 1011.1 hPa NW 6.4 km/h 30.6 km/h 87 % 0.3 mm 262 W/m2
10:30 14.0 °C 11.3 °C 1011.1 hPa WNW 17.7 km/h 30.6 km/h 84 % 0.3 mm 308 W/m2
10:35 14.1 °C 10.9 °C 1011.1 hPa West 17.7 km/h 41.8 km/h 81 % 0.3 mm 141 W/m2
10:40 14.1 °C 10.8 °C 1011.4 hPa NW 17.7 km/h 41.8 km/h 81 % 0.3 mm 378 W/m2
10:45 14.3 °C 10.7 °C 1011.4 hPa WNW 17.7 km/h 40.2 km/h 79 % 0.3 mm 269 W/m2
10:50 14.8 °C 10.8 °C 1011.4 hPa NW 20.9 km/h 40.2 km/h 77 % 0.3 mm 700 W/m2
10:55 15.4 °C 10.6 °C 1011.4 hPa NW 14.5 km/h 35.4 km/h 73 % 0.3 mm 700 W/m2
11:00 15.6 °C 10.4 °C 1011.4 hPa West 29.0 km/h 32.2 km/h 71 % 0.3 mm 717 W/m2
11:05 15.7 °C 10.7 °C 1011.4 hPa West 19.3 km/h 33.8 km/h 72 % 0.0 mm 745 W/m2
11:10 15.9 °C 10.5 °C 1011.4 hPa WNW 19.3 km/h 33.8 km/h 70 % 0.0 mm 759 W/m2
11:15 16.5 °C 11.4 °C 1011.7 hPa WNW 20.9 km/h 32.2 km/h 72 % 0.0 mm 856 W/m2
11:20 16.4 °C 10.7 °C 1011.7 hPa WNW 27.4 km/h 38.6 km/h 69 % 0.3 mm 387 W/m2
11:25 15.5 °C 10.3 °C 1011.7 hPa NW 9.7 km/h 38.6 km/h 71 % 0.3 mm 339 W/m2
11:30 14.8 °C 10.0 °C 1011.7 hPa NW 17.7 km/h 37.0 km/h 73 % 0.3 mm 341 W/m2
11:35 14.7 °C 10.3 °C 1012.1 hPa WNW 24.1 km/h 37.0 km/h 75 % 0.3 mm 443 W/m2
11:40 14.8 °C 10.4 °C 1012.1 hPa WNW 17.7 km/h 40.2 km/h 75 % 0.3 mm 366 W/m2
11:45 15.3 °C 10.9 °C 1012.1 hPa SW 25.7 km/h 40.2 km/h 75 % 0.3 mm 933 W/m2
11:50 16.3 °C 11.7 °C 1012.1 hPa West 9.7 km/h 37.0 km/h 74 % 0.3 mm 828 W/m2
11:55 16.4 °C 11.6 °C 1012.1 hPa NW 25.7 km/h 43.4 km/h 73 % 0.3 mm 895 W/m2
12:00 16.2 °C 11.2 °C 1012.1 hPa West 14.5 km/h 43.4 km/h 72 % 0.3 mm 443 W/m2
12:05 15.7 °C 11.3 °C 1012.1 hPa West 9.7 km/h 35.4 km/h 75 % 0.3 mm 297 W/m2
12:10 15.3 °C 10.9 °C 1012.4 hPa NW 24.1 km/h 33.8 km/h 75 % 0.3 mm 62 W/m2
12:15 13.8 °C 11.0 °C 1012.8 hPa WNW 14.5 km/h 43.4 km/h 83 % 0.5 mm 111 W/m2
12:20 12.8 °C 10.9 °C 1012.8 hPa WNW 16.1 km/h 43.4 km/h 88 % 0.5 mm 257 W/m2
12:25 12.6 °C 10.8 °C 1012.8 hPa NNW 14.5 km/h 32.2 km/h 89 % 0.5 mm 392 W/m2
12:30 12.9 °C 11.2 °C 1012.4 hPa WNW 11.3 km/h 35.4 km/h 89 % 0.5 mm 522 W/m2
12:35 13.8 °C 12.0 °C 1012.8 hPa WNW 16.1 km/h 35.4 km/h 89 % 0.5 mm 445 W/m2
12:40 14.3 °C 11.8 °C 1012.8 hPa WNW 17.7 km/h 32.2 km/h 85 % 0.5 mm 445 W/m2
12:45 15.0 °C 11.8 °C 1012.4 hPa NW 33.8 km/h 48.3 km/h 81 % 0.5 mm 954 W/m2
12:50 15.4 °C 12.0 °C 1012.8 hPa NW 12.9 km/h 48.3 km/h 80 % 0.5 mm 1086 W/m2
12:55 15.8 °C 12.2 °C 1012.8 hPa NW 14.5 km/h 40.2 km/h 79 % 0.5 mm 905 W/m2
13:00 15.5 °C 11.7 °C 1012.8 hPa West 25.7 km/h 41.8 km/h 78 % 0.5 mm 381 W/m2
13:05 14.7 °C 11.3 °C 1013.1 hPa WNW 16.1 km/h 41.8 km/h 80 % 0.5 mm 234 W/m2
13:10 13.7 °C 10.5 °C 1013.1 hPa WNW 14.5 km/h 38.6 km/h 81 % 0.5 mm 285 W/m2
13:15 13.6 °C 10.2 °C 1013.1 hPa WNW 14.5 km/h 38.6 km/h 80 % 0.0 mm 323 W/m2
13:20 14.1 °C 10.8 °C 1013.1 hPa NNW 29.0 km/h 33.8 km/h 81 % 0.0 mm 715 W/m2
13:25 15.7 °C 11.9 °C 1013.1 hPa WNW 14.5 km/h 33.8 km/h 78 % 0.0 mm 863 W/m2
13:30 16.3 °C 11.4 °C 1013.1 hPa West 17.7 km/h 33.8 km/h 73 % 0.0 mm 552 W/m2
13:35 16.0 °C 11.2 °C 1013.1 hPa WSW 8.0 km/h 38.6 km/h 73 % 0.0 mm 997 W/m2
13:40 16.6 °C 11.7 °C 1013.1 hPa WNW 30.6 km/h 38.6 km/h 73 % 0.0 mm 984 W/m2
13:45 16.9 °C 11.8 °C 1013.1 hPa WNW 16.1 km/h 41.8 km/h 72 % 0.0 mm 563 W/m2
13:50 16.1 °C 10.8 °C 1013.1 hPa WNW 27.4 km/h 49.9 km/h 71 % 0.0 mm 380 W/m2
13:55 15.6 °C 9.9 °C 1013.1 hPa WNW 20.9 km/h 49.9 km/h 69 % 0.0 mm 492 W/m2
14:00 16.2 °C 10.7 °C 1013.4 hPa West 9.7 km/h 43.4 km/h 70 % 0.0 mm 633 W/m2
14:05 16.6 °C 10.7 °C 1013.4 hPa NW 20.9 km/h 43.4 km/h 68 % 0.0 mm 459 W/m2
14:10 16.0 °C 11.0 °C 1013.4 hPa West 11.3 km/h 41.8 km/h 72 % 0.0 mm 376 W/m2
14:15 15.5 °C 10.5 °C 1013.4 hPa NW 17.7 km/h 41.8 km/h 72 % 0.0 mm 436 W/m2
14:20 15.1 °C 10.5 °C 1013.4 hPa WNW 17.7 km/h 37.0 km/h 74 % 0.0 mm 466 W/m2
14:25 15.3 °C 10.5 °C 1013.8 hPa West 12.9 km/h 37.0 km/h 73 % 0.0 mm 770 W/m2
14:30 16.3 °C 11.0 °C 1013.4 hPa WSW 24.1 km/h 43.4 km/h 71 % 0.0 mm 691 W/m2
14:35 16.6 °C 11.5 °C 1013.8 hPa WNW 24.1 km/h 43.4 km/h 72 % 0.0 mm 1018 W/m2
14:40 16.8 °C 11.3 °C 1013.4 hPa WNW 38.6 km/h 40.2 km/h 70 % 0.0 mm 926 W/m2
14:45 16.9 °C 11.6 °C 1013.8 hPa West 14.5 km/h 38.6 km/h 71 % 0.0 mm 928 W/m2
14:50 17.0 °C 11.5 °C 1013.8 hPa WNW 33.8 km/h 38.6 km/h 70 % 0.0 mm 990 W/m2
14:55 17.2 °C 11.5 °C 1013.8 hPa WNW 9.7 km/h 33.8 km/h 69 % 0.0 mm 1109 W/m2
15:00 17.2 °C 11.7 °C 1013.8 hPa West 12.9 km/h 38.6 km/h 70 % 0.0 mm 1093 W/m2
15:05 17.8 °C 12.2 °C 1013.8 hPa West 29.0 km/h 38.6 km/h 70 % 0.0 mm 1041 W/m2
15:10 17.6 °C 10.7 °C 1013.8 hPa WNW 32.2 km/h 40.2 km/h 64 % 0.0 mm 1072 W/m2
15:15 16.6 °C 10.5 °C 1014.1 hPa WNW 14.5 km/h 43.4 km/h 67 % 0.0 mm 376 W/m2
15:20 16.3 °C 10.8 °C 1014.1 hPa West 24.1 km/h 43.4 km/h 70 % 0.0 mm 1130 W/m2
15:25 17.2 °C 11.9 °C 1014.1 hPa SW 17.7 km/h 38.6 km/h 71 % 0.3 mm 984 W/m2
15:30 17.1 °C 10.9 °C 1014.1 hPa WNW 8.0 km/h 35.4 km/h 67 % 0.3 mm 686 W/m2
15:35 17.3 °C 11.1 °C 1014.1 hPa WSW 25.7 km/h 40.2 km/h 67 % 0.3 mm 902 W/m2
15:40 17.5 °C 11.5 °C 1014.1 hPa WSW 14.5 km/h 43.4 km/h 68 % 0.3 mm 898 W/m2
15:45 17.3 °C 11.6 °C 1014.1 hPa West 17.7 km/h 43.4 km/h 69 % 0.3 mm 868 W/m2
15:50 17.4 °C 11.0 °C 1014.1 hPa West 16.1 km/h 40.2 km/h 66 % 0.3 mm 875 W/m2
15:55 17.4 °C 11.5 °C 1014.1 hPa NW 17.7 km/h 40.2 km/h 68 % 0.3 mm 854 W/m2
16:00 17.7 °C 12.3 °C 1014.1 hPa NNW 12.9 km/h 40.2 km/h 71 % 0.3 mm 847 W/m2
16:05 17.3 °C 11.1 °C 1014.1 hPa WNW 20.9 km/h 38.6 km/h 67 % 0.3 mm 882 W/m2
16:10 17.6 °C 12.0 °C 1014.1 hPa WNW 20.9 km/h 38.6 km/h 70 % 0.3 mm 814 W/m2
16:15 17.3 °C 11.4 °C 1014.1 hPa West 32.2 km/h 37.0 km/h 68 % 0.3 mm 824 W/m2
16:20 17.4 °C 11.9 °C 1014.1 hPa WNW 16.1 km/h 37.0 km/h 70 % 0.3 mm 831 W/m2
16:25 17.1 °C 11.2 °C 1014.1 hPa WNW 14.5 km/h 37.0 km/h 68 % 0.0 mm 281 W/m2
16:30 16.7 °C 11.0 °C 1014.1 hPa WNW 22.5 km/h 37.0 km/h 69 % 0.0 mm 974 W/m2
16:35 17.5 °C 12.0 °C 1014.1 hPa NW 19.3 km/h 37.0 km/h 70 % 0.0 mm 919 W/m2
16:40 16.8 °C 11.1 °C 1014.4 hPa WSW 30.6 km/h 37.0 km/h 69 % 0.0 mm 352 W/m2
16:45 16.6 °C 11.7 °C 1014.4 hPa West 30.6 km/h 37.0 km/h 73 % 0.0 mm 415 W/m2
16:50 16.7 °C 11.8 °C 1014.4 hPa WNW 27.4 km/h 40.2 km/h 73 % 0.0 mm 851 W/m2
16:55 17.5 °C 12.8 °C 1014.4 hPa West 11.3 km/h 40.2 km/h 74 % 0.0 mm 819 W/m2
17:00 17.7 °C 11.5 °C 1014.4 hPa NW 20.9 km/h 40.2 km/h 67 % 0.0 mm 795 W/m2
17:05 17.5 °C 11.3 °C 1014.4 hPa NW 12.9 km/h 46.7 km/h 67 % 0.0 mm 763 W/m2
17:10 17.4 °C 11.0 °C 1014.8 hPa NNW 6.4 km/h 46.7 km/h 66 % 0.0 mm 735 W/m2
17:20 17.2 °C 11.0 °C 1014.4 hPa West 35.4 km/h 35.4 km/h 67 % 0.0 mm 670 W/m2
17:25 17.2 °C 11.4 °C 1014.8 hPa WSW 16.1 km/h 35.4 km/h 69 % 0.0 mm 657 W/m2
17:30 17.2 °C 12.1 °C 1014.8 hPa West 17.7 km/h 37.0 km/h 72 % 0.0 mm 691 W/m2
17:35 17.5 °C 12.2 °C 1014.8 hPa WNW 16.1 km/h 37.0 km/h 71 % 0.0 mm 670 W/m2
17:40 17.2 °C 11.3 °C 1014.8 hPa WSW 12.9 km/h 32.2 km/h 68 % 0.0 mm 234 W/m2
17:45 16.2 °C 10.7 °C 1015.1 hPa West 20.9 km/h 32.2 km/h 70 % 0.0 mm 148 W/m2
17:50 15.6 °C 10.9 °C 1015.1 hPa West 24.1 km/h 37.0 km/h 74 % 0.0 mm 109 W/m2
17:55 14.7 °C 10.5 °C 1015.1 hPa NW 22.5 km/h 37.0 km/h 76 % 0.0 mm 269 W/m2
18:00 15.0 °C 11.0 °C 1015.1 hPa West 25.7 km/h 33.8 km/h 77 % 0.0 mm 459 W/m2
18:05 15.1 °C 10.7 °C 1015.1 hPa West 17.7 km/h 40.2 km/h 75 % 0.0 mm 167 W/m2
18:10 15.0 °C 10.8 °C 1015.1 hPa NW 11.3 km/h 40.2 km/h 76 % 0.0 mm 330 W/m2
18:15 15.4 °C 11.0 °C 1015.1 hPa WNW 14.5 km/h 33.8 km/h 75 % 0.0 mm 788 W/m2
18:20 16.1 °C 11.4 °C 1015.5 hPa WNW 12.9 km/h 33.8 km/h 74 % 0.0 mm 666 W/m2
18:25 16.4 °C 11.8 °C 1015.1 hPa West 25.7 km/h 30.6 km/h 74 % 0.0 mm 533 W/m2
18:30 16.6 °C 12.2 °C 1015.5 hPa West 19.3 km/h 30.6 km/h 75 % 0.0 mm 515 W/m2
18:35 16.6 °C 12.0 °C 1015.5 hPa West 16.1 km/h 30.6 km/h 74 % 0.0 mm 483 W/m2
18:40 16.0 °C 11.4 °C 1015.1 hPa WNW 11.3 km/h 30.6 km/h 74 % 0.0 mm 485 W/m2
18:45 15.9 °C 11.3 °C 1015.1 hPa WNW 9.7 km/h 29.0 km/h 74 % 0.0 mm 183 W/m2
18:50 15.9 °C 11.1 °C 1015.1 hPa WNW 9.7 km/h 29.0 km/h 73 % 0.0 mm 497 W/m2
18:55 16.3 °C 10.6 °C 1015.5 hPa NNW 9.7 km/h 33.8 km/h 69 % 0.0 mm 466 W/m2
19:00 16.4 °C 10.5 °C 1015.5 hPa WSW 17.7 km/h 33.8 km/h 68 % 0.0 mm 436 W/m2
19:05 16.2 °C 10.5 °C 1015.5 hPa West 8.0 km/h 37.0 km/h 69 % 0.0 mm 415 W/m2
19:10 16.1 °C 10.2 °C 1015.5 hPa WNW 16.1 km/h 38.6 km/h 68 % 0.0 mm 380 W/m2
19:20 15.9 °C 10.3 °C 1015.5 hPa WNW 20.9 km/h 35.4 km/h 69 % 0.0 mm 338 W/m2
19:25 16.0 °C 10.1 °C 1015.5 hPa WSW 6.4 km/h 35.4 km/h 68 % 0.0 mm 327 W/m2
19:30 16.1 °C 10.6 °C 1015.5 hPa West 12.9 km/h 27.4 km/h 70 % 0.0 mm 83 W/m2
19:35 15.7 °C 10.3 °C 1015.5 hPa WNW 29.0 km/h 32.2 km/h 70 % 0.0 mm 90 W/m2
19:40 15.3 °C 10.1 °C 1015.5 hPa WSW 24.1 km/h 32.2 km/h 71 % 0.0 mm 93 W/m2
19:45 15.2 °C 10.0 °C 1015.5 hPa WNW 29.0 km/h 30.6 km/h 71 % 0.0 mm 250 W/m2
19:50 15.1 °C 9.9 °C 1015.8 hPa WNW 11.3 km/h 35.4 km/h 71 % 0.0 mm 91 W/m2
19:55 15.2 °C 10.4 °C 1015.5 hPa WNW 12.9 km/h 35.4 km/h 73 % 0.0 mm 134 W/m2
20:00 15.2 °C 10.2 °C 1015.8 hPa West 12.9 km/h 35.4 km/h 72 % 0.0 mm 116 W/m2
20:05 15.1 °C 10.1 °C 1015.8 hPa NW 17.7 km/h 32.2 km/h 72 % 0.0 mm 221 W/m2
20:10 15.2 °C 10.4 °C 1015.8 hPa West 14.5 km/h 35.4 km/h 73 % 0.0 mm 67 W/m2
20:15 15.0 °C 10.2 °C 1015.8 hPa WSW 19.3 km/h 35.4 km/h 73 % 0.0 mm 90 W/m2
20:20 14.8 °C 10.0 °C 1015.8 hPa WNW 19.3 km/h 35.4 km/h 73 % 0.0 mm 54 W/m2
20:25 14.7 °C 10.1 °C 1015.8 hPa NW 16.1 km/h 43.4 km/h 74 % 0.0 mm 56 W/m2
20:30 14.7 °C 10.3 °C 1016.1 hPa West 19.3 km/h 43.4 km/h 75 % 0.0 mm 58 W/m2
20:35 14.9 °C 10.3 °C 1016.1 hPa WNW 20.9 km/h 33.8 km/h 74 % 0.0 mm 121 W/m2
20:40 15.0 °C 10.0 °C 1016.1 hPa West 24.1 km/h 38.6 km/h 72 % 0.0 mm 81 W/m2
20:45 14.8 °C 10.0 °C 1016.1 hPa WNW 11.3 km/h 38.6 km/h 73 % 0.0 mm 33 W/m2
20:50 14.6 °C 10.0 °C 1016.1 hPa NW 25.7 km/h 35.4 km/h 74 % 0.0 mm 67 W/m2
20:55 14.6 °C 9.8 °C 1016.1 hPa WNW 14.5 km/h 35.4 km/h 73 % 0.0 mm 37 W/m2
21:00 14.5 °C 9.9 °C 1016.1 hPa West 22.5 km/h 35.4 km/h 74 % 0.0 mm 26 W/m2
21:05 14.4 °C 9.8 °C 1016.5 hPa West 9.7 km/h 35.4 km/h 74 % 0.0 mm 19 W/m2
21:10 14.4 °C 10.3 °C 1016.1 hPa NW 16.1 km/h 33.8 km/h 76 % 0.0 mm 28 W/m2
21:15 14.5 °C 10.1 °C 1016.5 hPa WNW 20.9 km/h 29.0 km/h 75 % 0.0 mm 39 W/m2
21:20 14.6 °C 10.4 °C 1016.1 hPa WNW 16.1 km/h 29.0 km/h 76 % 0.0 mm 33 W/m2
21:25 14.6 °C 10.2 °C 1016.1 hPa WNW 25.7 km/h 33.8 km/h 75 % 0.0 mm 25 W/m2
21:30 14.4 °C 10.1 °C 1016.5 hPa WNW 22.5 km/h 33.8 km/h 75 % 0.0 mm 19 W/m2
21:35 14.3 °C 9.5 °C 1016.5 hPa WNW 17.7 km/h 30.6 km/h 73 % 0.0 mm 11 W/m2
21:40 14.1 °C 9.5 °C 1016.5 hPa WNW 19.3 km/h 37.0 km/h 74 % 0.0 mm 9 W/m2
21:45 14.2 °C 9.8 °C 1016.5 hPa West 6.4 km/h 37.0 km/h 75 % 0.0 mm 9 W/m2
21:50 14.2 °C 10.0 °C 1016.5 hPa NW 16.1 km/h 35.4 km/h 76 % 0.0 mm 5 W/m2
21:55 14.2 °C 9.8 °C 1016.5 hPa NW 25.7 km/h 35.4 km/h 75 % 0.0 mm 5 W/m2
22:00 14.1 °C 9.9 °C 1016.5 hPa West 16.1 km/h 35.4 km/h 76 % 0.0 mm 0 W/m2
22:05 14.1 °C 9.7 °C 1016.5 hPa WNW 24.1 km/h 35.4 km/h 75 % 0.0 mm 0 W/m2
22:10 13.9 °C 9.8 °C 1016.8 hPa WNW 19.3 km/h 37.0 km/h 76 % 0.0 mm 0 W/m2
22:15 13.8 °C 9.7 °C 1016.8 hPa NW 8.0 km/h 40.2 km/h 76 % 0.0 mm 0 W/m2
22:25 13.9 °C 9.8 °C 1016.8 hPa NNW 29.0 km/h 30.6 km/h 76 % 0.0 mm 0 W/m2
22:30 14.1 °C 10.1 °C 1016.8 hPa North 9.7 km/h 30.6 km/h 77 % 0.0 mm 0 W/m2
22:35 14.1 °C 9.9 °C 1016.8 hPa West 16.1 km/h 32.2 km/h 76 % 0.0 mm 0 W/m2
22:40 14.0 °C 9.8 °C 1016.8 hPa WSW 16.1 km/h 32.2 km/h 76 % 0.0 mm 0 W/m2
22:45 14.1 °C 9.9 °C 1017.2 hPa WNW 17.7 km/h 30.6 km/h 76 % 0.0 mm 0 W/m2
22:50 13.9 °C 9.6 °C 1017.2 hPa WNW 14.5 km/h 33.8 km/h 75 % 0.0 mm 0 W/m2
22:55 13.9 °C 9.7 °C 1017.2 hPa West 20.9 km/h 33.8 km/h 76 % 0.0 mm 0 W/m2
23:00 13.8 °C 9.6 °C 1017.2 hPa West 20.9 km/h 32.2 km/h 76 % 0.0 mm 0 W/m2
23:05 13.7 °C 9.6 °C 1017.5 hPa WNW 9.7 km/h 32.2 km/h 76 % 0.0 mm 0 W/m2
23:10 13.7 °C 9.7 °C 1017.5 hPa WNW 17.7 km/h 29.0 km/h 77 % 0.0 mm 0 W/m2
23:15 13.7 °C 9.7 °C 1017.5 hPa West 11.3 km/h 29.0 km/h 77 % 0.0 mm 0 W/m2
23:20 13.7 °C 9.8 °C 1017.2 hPa WNW 11.3 km/h 27.4 km/h 77 % 0.0 mm 0 W/m2
23:25 13.7 °C 9.8 °C 1017.5 hPa WNW 11.3 km/h 29.0 km/h 77 % 0.0 mm 0 W/m2
23:30 13.7 °C 9.8 °C 1017.5 hPa NNW 12.9 km/h 32.2 km/h 77 % 0.0 mm 0 W/m2
23:35 13.7 °C 10.0 °C 1017.5 hPa WNW 14.5 km/h 32.2 km/h 78 % 0.0 mm 0 W/m2
23:40 13.8 °C 9.8 °C 1017.5 hPa NW 19.3 km/h 27.4 km/h 77 % 0.0 mm 0 W/m2
23:45 13.7 °C 10.0 °C 1017.5 hPa WNW 12.9 km/h 27.4 km/h 78 % 0.0 mm 0 W/m2
23:50 13.8 °C 10.2 °C 1017.5 hPa WNW 12.9 km/h 25.7 km/h 79 % 0.0 mm 0 W/m2
23:55 13.8 °C 10.3 °C 1017.5 hPa West 12.9 km/h 27.4 km/h 79 % 0.0 mm 0 W/m2
Avec l'autorisation de Weather Underground - 1.75 mb